Terminal Aerodrome Forecast
Issued by NWS

Home | Current Version | Previous Version | Text Only | Print | Product List | Glossary On
Versions: 1 2 3 4 5 6 7 8 9 10 11 12 13 14 15 16 17 18 19
000
FTUS45 KBOU 251136
TAFAPA
TAF
KAPA 251136Z 2512/2612 19006KT P6SM FEW090
     FM252000 15006KT P6SM SCT090 BKN200
     FM260100 18008KT P6SM SCT080 BKN150
     FM260900 20006KT P6SM FEW090=

USA.gov is the U.S. government's official web portal to all federal, state and local government web resources and services.